sensor_id;sensor_type;location;lat;lon;timestamp;P1;durP1;ratioP1;P2;durP2;ratioP2
16531;SDS011;66872;63.142;14.482;2023-06-24T00:00:30;2.00;;;1.00;;
16531;SDS011;66872;63.142;14.482;2023-06-24T00:02:55;1.10;;;0.80;;
16531;SDS011;66872;63.142;14.482;2023-06-24T00:05:23;1.67;;;1.23;;
16531;SDS011;66872;63.142;14.482;2023-06-24T00:07:48;1.00;;;0.90;;
16531;SDS011;66872;63.142;14.482;2023-06-24T00:10:14;2.20;;;1.20;;
16531;SDS011;66872;63.142;14.482;2023-06-24T00:12:40;1.50;;;0.83;;
16531;SDS011;66872;63.142;14.482;2023-06-24T00:15:06;1.02;;;0.93;;
16531;SDS011;66872;63.142;14.482;2023-06-24T00:17:36;1.10;;;1.00;;
16531;SDS011;66872;63.142;14.482;2023-06-24T00:20:03;0.82;;;0.80;;
16531;SDS011;66872;63.142;14.482;2023-06-24T00:22:30;1.52;;;0.90;;
16531;SDS011;66872;63.142;14.482;2023-06-24T00:24:56;1.88;;;1.10;;
16531;SDS011;66872;63.142;14.482;2023-06-24T00:27:21;1.07;;;0.97;;
16531;SDS011;66872;63.142;14.482;2023-06-24T00:29:47;1.15;;;0.90;;
16531;SDS011;66872;63.142;14.482;2023-06-24T00:32:13;1.20;;;1.10;;
16531;SDS011;66872;63.142;14.482;2023-06-24T00:34:38;1.25;;;0.90;;
16531;SDS011;66872;63.142;14.482;2023-06-24T00:37:08;1.10;;;1.00;;
16531;SDS011;66872;63.142;14.482;2023-06-24T00:39:34;1.00;;;0.90;;
16531;SDS011;66872;63.142;14.482;2023-06-24T00:42:00;1.00;;;0.90;;
16531;SDS011;66872;63.142;14.482;2023-06-24T00:44:26;1.30;;;1.00;;
16531;SDS011;66872;63.142;14.482;2023-06-24T00:46:53;1.00;;;0.90;;
16531;SDS011;66872;63.142;14.482;2023-06-24T00:49:19;1.10;;;1.00;;
16531;SDS011;66872;63.142;14.482;2023-06-24T00:51:45;1.30;;;1.02;;
16531;SDS011;66872;63.142;14.482;2023-06-24T00:54:15;1.30;;;0.90;;
16531;SDS011;66872;63.142;14.482;2023-06-24T00:56:41;1.80;;;1.23;;
16531;SDS011;66872;63.142;14.482;2023-06-24T00:59:08;1.00;;;0.90;;
16531;SDS011;66872;63.142;14.482;2023-06-24T01:01:38;1.02;;;0.90;;
16531;SDS011;66872;63.142;14.482;2023-06-24T01:04:04;1.30;;;1.05;;
16531;SDS011;66872;63.142;14.482;2023-06-24T01:06:31;1.30;;;1.10;;
16531;SDS011;66872;63.142;14.482;2023-06-24T01:09:01;1.52;;;1.02;;
16531;SDS011;66872;63.142;14.482;2023-06-24T01:11:28;1.13;;;1.00;;
16531;SDS011;66872;63.142;14.482;2023-06-24T01:13:55;0.88;;;0.85;;
16531;SDS011;66872;63.142;14.482;2023-06-24T01:18:54;1.38;;;0.90;;
16531;SDS011;66872;63.142;14.482;2023-06-24T01:24:24;0.87;;;0.87;;
16531;SDS011;66872;63.142;14.482;2023-06-24T01:29:41;1.00;;;0.80;;
16531;SDS011;66872;63.142;14.482;2023-06-24T01:32:21;1.03;;;0.80;;
16531;SDS011;66872;63.142;14.482;2023-06-24T01:35:00;1.15;;;1.00;;
16531;SDS011;66872;63.142;14.482;2023-06-24T01:37:37;1.13;;;1.00;;
16531;SDS011;66872;63.142;14.482;2023-06-24T01:42:37;1.53;;;1.13;;
16531;SDS011;66872;63.142;14.482;2023-06-24T01:45:06;0.90;;;0.70;;
16531;SDS011;66872;63.142;14.482;2023-06-24T01:47:34;1.17;;;1.08;;
16531;SDS011;66872;63.142;14.482;2023-06-24T01:50:02;1.03;;;0.90;;
16531;SDS011;66872;63.142;14.482;2023-06-24T01:52:29;0.93;;;0.83;;
16531;SDS011;66872;63.142;14.482;2023-06-24T01:54:55;0.67;;;0.67;;
16531;SDS011;66872;63.142;14.482;2023-06-24T01:57:23;1.10;;;1.00;;
16531;SDS011;66872;63.142;14.482;2023-06-24T01:59:52;0.90;;;0.90;;
16531;SDS011;66872;63.142;14.482;2023-06-24T02:02:20;0.80;;;0.80;;
16531;SDS011;66872;63.142;14.482;2023-06-24T02:04:47;1.00;;;0.90;;
16531;SDS011;66872;63.142;14.482;2023-06-24T02:07:16;1.50;;;0.93;;
16531;SDS011;66872;63.142;14.482;2023-06-24T02:09:45;1.00;;;0.80;;
16531;SDS011;66872;63.142;14.482;2023-06-24T02:12:11;1.90;;;1.00;;
16531;SDS011;66872;63.142;14.482;2023-06-24T02:14:38;1.30;;;1.20;;
16531;SDS011;66872;63.142;14.482;2023-06-24T02:17:04;1.10;;;1.00;;
16531;SDS011;66872;63.142;14.482;2023-06-24T02:19:33;1.15;;;0.98;;
16531;SDS011;66872;63.142;14.482;2023-06-24T02:21:59;1.15;;;0.90;;
16531;SDS011;66872;63.142;14.482;2023-06-24T02:24:27;1.20;;;1.00;;
16531;SDS011;66872;63.142;14.482;2023-06-24T02:26:55;1.30;;;1.00;;
16531;SDS011;66872;63.142;14.482;2023-06-24T02:29:24;1.00;;;0.90;;
16531;SDS011;66872;63.142;14.482;2023-06-24T02:31:52;1.30;;;1.00;;
16531;SDS011;66872;63.142;14.482;2023-06-24T02:34:18;1.13;;;0.80;;
16531;SDS011;66872;63.142;14.482;2023-06-24T02:36:44;1.17;;;0.90;;
16531;SDS011;66872;63.142;14.482;2023-06-24T02:39:10;1.23;;;1.00;;
16531;SDS011;66872;63.142;14.482;2023-06-24T02:41:35;1.05;;;0.90;;
16531;SDS011;66872;63.142;14.482;2023-06-24T02:44:01;1.40;;;1.00;;
16531;SDS011;66872;63.142;14.482;2023-06-24T02:46:27;1.13;;;1.03;;
16531;SDS011;66872;63.142;14.482;2023-06-24T02:48:56;1.33;;;1.20;;
16531;SDS011;66872;63.142;14.482;2023-06-24T02:51:23;1.30;;;1.20;;
16531;SDS011;66872;63.142;14.482;2023-06-24T02:53:49;1.15;;;1.02;;
16531;SDS011;66872;63.142;14.482;2023-06-24T02:56:15;0.85;;;0.85;;
16531;SDS011;66872;63.142;14.482;2023-06-24T02:58:45;1.13;;;1.00;;
16531;SDS011;66872;63.142;14.482;2023-06-24T03:01:12;1.13;;;1.02;;
16531;SDS011;66872;63.142;14.482;2023-06-24T03:03:38;1.60;;;1.10;;
16531;SDS011;66872;63.142;14.482;2023-06-24T03:06:06;1.88;;;1.25;;
16531;SDS011;66872;63.142;14.482;2023-06-24T03:08:32;1.20;;;1.10;;
16531;SDS011;66872;63.142;14.482;2023-06-24T03:10:58;0.90;;;0.90;;
16531;SDS011;66872;63.142;14.482;2023-06-24T03:13:24;1.65;;;1.40;;
16531;SDS011;66872;63.142;14.482;2023-06-24T03:15:49;1.10;;;1.00;;
16531;SDS011;66872;63.142;14.482;2023-06-24T03:18:15;1.10;;;1.00;;
16531;SDS011;66872;63.142;14.482;2023-06-24T03:20:42;1.27;;;1.17;;
16531;SDS011;66872;63.142;14.482;2023-06-24T03:23:07;1.05;;;0.90;;
16531;SDS011;66872;63.142;14.482;2023-06-24T03:25:36;1.00;;;1.00;;
16531;SDS011;66872;63.142;14.482;2023-06-24T03:28:02;1.23;;;1.10;;
16531;SDS011;66872;63.142;14.482;2023-06-24T03:30:32;1.30;;;1.20;;
16531;SDS011;66872;63.142;14.482;2023-06-24T03:32:58;1.27;;;1.17;;
16531;SDS011;66872;63.142;14.482;2023-06-24T03:35:24;1.05;;;1.00;;
16531;SDS011;66872;63.142;14.482;2023-06-24T03:37:50;1.23;;;1.13;;
16531;SDS011;66872;63.142;14.482;2023-06-24T03:40:15;1.13;;;1.02;;
16531;SDS011;66872;63.142;14.482;2023-06-24T03:42:41;1.25;;;1.10;;
16531;SDS011;66872;63.142;14.482;2023-06-24T03:45:07;1.42;;;1.23;;
16531;SDS011;66872;63.142;14.482;2023-06-24T03:47:33;1.20;;;1.10;;
16531;SDS011;66872;63.142;14.482;2023-06-24T03:49:59;1.30;;;1.20;;
16531;SDS011;66872;63.142;14.482;2023-06-24T03:52:24;0.88;;;0.88;;
16531;SDS011;66872;63.142;14.482;2023-06-24T03:54:50;1.40;;;1.20;;
16531;SDS011;66872;63.142;14.482;2023-06-24T03:57:16;1.30;;;1.20;;
16531;SDS011;66872;63.142;14.482;2023-06-24T03:59:41;1.30;;;1.20;;
16531;SDS011;66872;63.142;14.482;2023-06-24T04:02:07;1.30;;;1.20;;
16531;SDS011;66872;63.142;14.482;2023-06-24T04:04:33;1.50;;;1.27;;
16531;SDS011;66872;63.142;14.482;2023-06-24T04:07:00;1.25;;;1.15;;
16531;SDS011;66872;63.142;14.482;2023-06-24T04:09:25;1.27;;;1.17;;
16531;SDS011;66872;63.142;14.482;2023-06-24T04:11:51;1.55;;;1.20;;
16531;SDS011;66872;63.142;14.482;2023-06-24T04:14:17;1.30;;;1.20;;
16531;SDS011;66872;63.142;14.482;2023-06-24T04:16:42;1.17;;;1.08;;
16531;SDS011;66872;63.142;14.482;2023-06-24T04:19:08;1.30;;;1.20;;
16531;SDS011;66872;63.142;14.482;2023-06-24T04:21:34;1.65;;;1.23;;
16531;SDS011;66872;63.142;14.482;2023-06-24T04:23:59;1.25;;;1.10;;
16531;SDS011;66872;63.142;14.482;2023-06-24T04:26:25;1.65;;;1.20;;
16531;SDS011;66872;63.142;14.482;2023-06-24T04:28:51;1.35;;;1.25;;
16531;SDS011;66872;63.142;14.482;2023-06-24T04:31:17;1.20;;;1.10;;
16531;SDS011;66872;63.142;14.482;2023-06-24T04:33:42;1.30;;;1.20;;
16531;SDS011;66872;63.142;14.482;2023-06-24T04:36:08;1.20;;;1.10;;
16531;SDS011;66872;63.142;14.482;2023-06-24T04:38:34;1.45;;;1.35;;
16531;SDS011;66872;63.142;14.482;2023-06-24T04:40:59;1.40;;;1.30;;
16531;SDS011;66872;63.142;14.482;2023-06-24T04:43:25;1.52;;;1.35;;
16531;SDS011;66872;63.142;14.482;2023-06-24T04:45:53;1.30;;;1.20;;
16531;SDS011;66872;63.142;14.482;2023-06-24T04:48:20;1.23;;;1.13;;
16531;SDS011;66872;63.142;14.482;2023-06-24T04:50:48;1.52;;;1.20;;
16531;SDS011;66872;63.142;14.482;2023-06-24T04:53:14;1.40;;;1.30;;
16531;SDS011;66872;63.142;14.482;2023-06-24T04:55:39;1.50;;;1.40;;
16531;SDS011;66872;63.142;14.482;2023-06-24T04:58:05;1.20;;;1.10;;
16531;SDS011;66872;63.142;14.482;2023-06-24T05:00:31;1.40;;;1.30;;
16531;SDS011;66872;63.142;14.482;2023-06-24T05:02:57;1.40;;;1.30;;
16531;SDS011;66872;63.142;14.482;2023-06-24T05:05:22;0.90;;;0.90;;
16531;SDS011;66872;63.142;14.482;2023-06-24T05:07:48;1.25;;;1.15;;
16531;SDS011;66872;63.142;14.482;2023-06-24T05:10:14;1.40;;;1.30;;
16531;SDS011;66872;63.142;14.482;2023-06-24T05:12:40;1.20;;;1.10;;
16531;SDS011;66872;63.142;14.482;2023-06-24T05:15:06;1.83;;;1.30;;
16531;SDS011;66872;63.142;14.482;2023-06-24T05:17:32;1.98;;;1.10;;
16531;SDS011;66872;63.142;14.482;2023-06-24T05:19:58;1.52;;;1.40;;
16531;SDS011;66872;63.142;14.482;2023-06-24T05:22:23;1.20;;;1.10;;
16531;SDS011;66872;63.142;14.482;2023-06-24T05:24:49;1.30;;;1.20;;
16531;SDS011;66872;63.142;14.482;2023-06-24T05:27:15;1.20;;;1.10;;
16531;SDS011;66872;63.142;14.482;2023-06-24T05:29:42;1.20;;;1.10;;
16531;SDS011;66872;63.142;14.482;2023-06-24T05:32:08;1.20;;;1.10;;
16531;SDS011;66872;63.142;14.482;2023-06-24T05:34:33;1.25;;;1.15;;
16531;SDS011;66872;63.142;14.482;2023-06-24T05:37:00;1.55;;;1.20;;
16531;SDS011;66872;63.142;14.482;2023-06-24T05:39:25;1.50;;;1.38;;
16531;SDS011;66872;63.142;14.482;2023-06-24T05:41:51;1.52;;;1.33;;
16531;SDS011;66872;63.142;14.482;2023-06-24T05:44:17;1.30;;;1.20;;
16531;SDS011;66872;63.142;14.482;2023-06-24T05:46:43;1.33;;;1.23;;
16531;SDS011;66872;63.142;14.482;2023-06-24T05:49:10;1.58;;;1.30;;
16531;SDS011;66872;63.142;14.482;2023-06-24T05:51:36;1.40;;;1.30;;
16531;SDS011;66872;63.142;14.482;2023-06-24T05:54:01;1.38;;;1.27;;
16531;SDS011;66872;63.142;14.482;2023-06-24T05:56:28;1.20;;;1.10;;
16531;SDS011;66872;63.142;14.482;2023-06-24T05:58:54;1.35;;;1.25;;
16531;SDS011;66872;63.142;14.482;2023-06-24T06:01:20;1.30;;;1.20;;
16531;SDS011;66872;63.142;14.482;2023-06-24T06:03:45;1.40;;;1.30;;
16531;SDS011;66872;63.142;14.482;2023-06-24T06:06:11;1.52;;;1.42;;
16531;SDS011;66872;63.142;14.482;2023-06-24T06:08:36;1.40;;;1.30;;
16531;SDS011;66872;63.142;14.482;2023-06-24T06:11:02;1.42;;;1.33;;
16531;SDS011;66872;63.142;14.482;2023-06-24T06:13:28;1.33;;;1.23;;
16531;SDS011;66872;63.142;14.482;2023-06-24T06:15:55;1.30;;;1.20;;
16531;SDS011;66872;63.142;14.482;2023-06-24T06:18:21;1.35;;;1.25;;
16531;SDS011;66872;63.142;14.482;2023-06-24T06:20:46;1.30;;;1.20;;
16531;SDS011;66872;63.142;14.482;2023-06-24T06:23:12;1.50;;;1.40;;
16531;SDS011;66872;63.142;14.482;2023-06-24T06:25:38;1.50;;;1.40;;
16531;SDS011;66872;63.142;14.482;2023-06-24T06:28:04;1.30;;;1.20;;
16531;SDS011;66872;63.142;14.482;2023-06-24T06:30:30;1.63;;;1.30;;
16531;SDS011;66872;63.142;14.482;2023-06-24T06:32:55;1.48;;;1.38;;
16531;SDS011;66872;63.142;14.482;2023-06-24T06:35:21;1.40;;;1.30;;
16531;SDS011;66872;63.142;14.482;2023-06-24T06:37:47;1.40;;;1.30;;
16531;SDS011;66872;63.142;14.482;2023-06-24T06:40:17;1.45;;;1.35;;
16531;SDS011;66872;63.142;14.482;2023-06-24T06:42:46;1.50;;;1.40;;
16531;SDS011;66872;63.142;14.482;2023-06-24T06:45:13;1.33;;;1.23;;
16531;SDS011;66872;63.142;14.482;2023-06-24T06:47:38;1.42;;;1.33;;
16531;SDS011;66872;63.142;14.482;2023-06-24T06:50:04;1.45;;;1.35;;
16531;SDS011;66872;63.142;14.482;2023-06-24T06:52:30;1.50;;;1.40;;
16531;SDS011;66872;63.142;14.482;2023-06-24T06:54:56;1.45;;;1.35;;
16531;SDS011;66872;63.142;14.482;2023-06-24T06:57:22;1.30;;;1.20;;
16531;SDS011;66872;63.142;14.482;2023-06-24T06:59:47;1.40;;;1.30;;
16531;SDS011;66872;63.142;14.482;2023-06-24T07:02:16;1.30;;;1.20;;
16531;SDS011;66872;63.142;14.482;2023-06-24T07:04:44;1.40;;;1.30;;
16531;SDS011;66872;63.142;14.482;2023-06-24T07:07:10;1.67;;;1.33;;
16531;SDS011;66872;63.142;14.482;2023-06-24T07:09:36;1.38;;;1.27;;
16531;SDS011;66872;63.142;14.482;2023-06-24T07:12:02;1.63;;;1.42;;
16531;SDS011;66872;63.142;14.482;2023-06-24T07:14:28;1.50;;;1.40;;
16531;SDS011;66872;63.142;14.482;2023-06-24T07:16:54;1.55;;;1.45;;
16531;SDS011;66872;63.142;14.482;2023-06-24T07:19:19;1.60;;;1.50;;
16531;SDS011;66872;63.142;14.482;2023-06-24T07:21:45;1.45;;;1.35;;
16531;SDS011;66872;63.142;14.482;2023-06-24T07:24:11;1.40;;;1.20;;
16531;SDS011;66872;63.142;14.482;2023-06-24T07:26:36;1.40;;;1.30;;
16531;SDS011;66872;63.142;14.482;2023-06-24T07:29:05;1.42;;;1.33;;
16531;SDS011;66872;63.142;14.482;2023-06-24T07:31:31;1.65;;;1.30;;
16531;SDS011;66872;63.142;14.482;2023-06-24T07:33:57;1.55;;;1.40;;
16531;SDS011;66872;63.142;14.482;2023-06-24T07:36:22;1.50;;;1.40;;
16531;SDS011;66872;63.142;14.482;2023-06-24T07:38:48;1.42;;;1.33;;
16531;SDS011;66872;63.142;14.482;2023-06-24T07:41:14;1.30;;;1.20;;
16531;SDS011;66872;63.142;14.482;2023-06-24T07:43:39;1.40;;;1.30;;
16531;SDS011;66872;63.142;14.482;2023-06-24T07:46:05;1.30;;;1.20;;
16531;SDS011;66872;63.142;14.482;2023-06-24T07:48:31;1.42;;;1.33;;
16531;SDS011;66872;63.142;14.482;2023-06-24T07:50:57;1.42;;;1.33;;
16531;SDS011;66872;63.142;14.482;2023-06-24T07:53:23;1.38;;;1.27;;
16531;SDS011;66872;63.142;14.482;2023-06-24T07:55:49;1.40;;;1.30;;
16531;SDS011;66872;63.142;14.482;2023-06-24T07:58:14;1.38;;;1.27;;
16531;SDS011;66872;63.142;14.482;2023-06-24T08:00:40;1.60;;;1.50;;
16531;SDS011;66872;63.142;14.482;2023-06-24T08:03:06;1.40;;;1.30;;
16531;SDS011;66872;63.142;14.482;2023-06-24T08:05:31;1.42;;;1.33;;
16531;SDS011;66872;63.142;14.482;2023-06-24T08:07:57;1.40;;;1.30;;
16531;SDS011;66872;63.142;14.482;2023-06-24T08:10:22;1.33;;;1.20;;
16531;SDS011;66872;63.142;14.482;2023-06-24T08:12:48;1.50;;;1.40;;
16531;SDS011;66872;63.142;14.482;2023-06-24T08:15:14;1.40;;;1.30;;
16531;SDS011;66872;63.142;14.482;2023-06-24T08:17:40;1.60;;;1.50;;
16531;SDS011;66872;63.142;14.482;2023-06-24T08:20:05;1.50;;;1.40;;
16531;SDS011;66872;63.142;14.482;2023-06-24T08:22:31;1.27;;;1.17;;
16531;SDS011;66872;63.142;14.482;2023-06-24T08:24:58;1.50;;;1.40;;
16531;SDS011;66872;63.142;14.482;2023-06-24T08:27:24;1.50;;;1.40;;
16531;SDS011;66872;63.142;14.482;2023-06-24T08:29:49;1.42;;;1.33;;
16531;SDS011;66872;63.142;14.482;2023-06-24T08:32:15;1.33;;;1.23;;
16531;SDS011;66872;63.142;14.482;2023-06-24T08:34:40;1.40;;;1.30;;
16531;SDS011;66872;63.142;14.482;2023-06-24T08:37:06;1.33;;;1.23;;
16531;SDS011;66872;63.142;14.482;2023-06-24T08:39:32;1.50;;;1.40;;
16531;SDS011;66872;63.142;14.482;2023-06-24T08:41:58;1.25;;;1.15;;
16531;SDS011;66872;63.142;14.482;2023-06-24T08:44:24;1.45;;;1.35;;
16531;SDS011;66872;63.142;14.482;2023-06-24T08:46:50;2.15;;;1.40;;
16531;SDS011;66872;63.142;14.482;2023-06-24T08:51:48;1.65;;;1.48;;
16531;SDS011;66872;63.142;14.482;2023-06-24T08:54:27;1.48;;;1.38;;
16531;SDS011;66872;63.142;14.482;2023-06-24T08:56:53;1.65;;;1.55;;
16531;SDS011;66872;63.142;14.482;2023-06-24T08:59:19;2.50;;;1.60;;
16531;SDS011;66872;63.142;14.482;2023-06-24T09:01:48;3.97;;;1.33;;
16531;SDS011;66872;63.142;14.482;2023-06-24T09:04:15;1.50;;;1.40;;
16531;SDS011;66872;63.142;14.482;2023-06-24T09:06:41;1.98;;;1.60;;
16531;SDS011;66872;63.142;14.482;2023-06-24T09:09:16;2.22;;;1.33;;
16531;SDS011;66872;63.142;14.482;2023-06-24T09:11:53;1.50;;;1.40;;
16531;SDS011;66872;63.142;14.482;2023-06-24T09:14:26;4.40;;;1.60;;
16531;SDS011;66872;63.142;14.482;2023-06-24T09:16:54;1.50;;;1.40;;
16531;SDS011;66872;63.142;14.482;2023-06-24T09:19:25;1.45;;;1.35;;
16531;SDS011;66872;63.142;14.482;2023-06-24T09:22:04;2.40;;;1.63;;
16531;SDS011;66872;63.142;14.482;2023-06-24T09:24:31;1.48;;;1.38;;
16531;SDS011;66872;63.142;14.482;2023-06-24T09:26:58;1.77;;;1.20;;
16531;SDS011;66872;63.142;14.482;2023-06-24T09:29:27;2.22;;;1.73;;
16531;SDS011;66872;63.142;14.482;2023-06-24T09:31:54;1.63;;;1.52;;
16531;SDS011;66872;63.142;14.482;2023-06-24T09:34:24;1.45;;;1.35;;
16531;SDS011;66872;63.142;14.482;2023-06-24T09:36:51;2.38;;;1.50;;
16531;SDS011;66872;63.142;14.482;2023-06-24T09:39:18;1.60;;;1.50;;
16531;SDS011;66872;63.142;14.482;2023-06-24T09:41:50;2.10;;;1.58;;
16531;SDS011;66872;63.142;14.482;2023-06-24T09:44:16;2.67;;;1.40;;
16531;SDS011;66872;63.142;14.482;2023-06-24T09:46:44;2.08;;;1.55;;
16531;SDS011;66872;63.142;14.482;2023-06-24T09:49:10;2.47;;;1.40;;
16531;SDS011;66872;63.142;14.482;2023-06-24T09:51:37;1.40;;;1.30;;
16531;SDS011;66872;63.142;14.482;2023-06-24T09:54:07;1.35;;;1.25;;
16531;SDS011;66872;63.142;14.482;2023-06-24T09:56:36;2.05;;;1.52;;
16531;SDS011;66872;63.142;14.482;2023-06-24T09:59:04;1.85;;;1.55;;
16531;SDS011;66872;63.142;14.482;2023-06-24T10:01:35;1.63;;;1.42;;
16531;SDS011;66872;63.142;14.482;2023-06-24T10:04:04;2.45;;;1.35;;
16531;SDS011;66872;63.142;14.482;2023-06-24T10:06:31;1.40;;;1.30;;
16531;SDS011;66872;63.142;14.482;2023-06-24T10:08:58;1.52;;;1.35;;
16531;SDS011;66872;63.142;14.482;2023-06-24T10:11:25;2.22;;;1.58;;
16531;SDS011;66872;63.142;14.482;2023-06-24T10:13:51;1.73;;;1.60;;
16531;SDS011;66872;63.142;14.482;2023-06-24T10:16:18;1.73;;;1.55;;
16531;SDS011;66872;63.142;14.482;2023-06-24T10:18:44;1.50;;;1.40;;
16531;SDS011;66872;63.142;14.482;2023-06-24T10:21:10;2.10;;;1.40;;
16531;SDS011;66872;63.142;14.482;2023-06-24T10:23:40;1.67;;;1.58;;
16531;SDS011;66872;63.142;14.482;2023-06-24T10:26:45;1.50;;;1.40;;
16531;SDS011;66872;63.142;14.482;2023-06-24T10:35:05;2.53;;;1.63;;
16531;SDS011;66872;63.142;14.482;2023-06-24T10:37:08;1.95;;;1.67;;
16531;SDS011;66872;63.142;14.482;2023-06-24T10:42:26;1.52;;;1.42;;
16531;SDS011;66872;63.142;14.482;2023-06-24T10:44:54;1.60;;;1.50;;
16531;SDS011;66872;63.142;14.482;2023-06-24T10:47:23;1.98;;;1.60;;
16531;SDS011;66872;63.142;14.482;2023-06-24T10:49:50;1.88;;;1.60;;
16531;SDS011;66872;63.142;14.482;2023-06-24T10:52:19;1.75;;;1.65;;
16531;SDS011;66872;63.142;14.482;2023-06-24T10:54:46;2.80;;;1.52;;
16531;SDS011;66872;63.142;14.482;2023-06-24T10:57:14;1.55;;;1.45;;
16531;SDS011;66872;63.142;14.482;2023-06-24T10:59:40;1.73;;;1.60;;
16531;SDS011;66872;63.142;14.482;2023-06-24T11:02:07;1.60;;;1.50;;
16531;SDS011;66872;63.142;14.482;2023-06-24T11:04:43;2.17;;;1.63;;
16531;SDS011;66872;63.142;14.482;2023-06-24T11:07:09;1.77;;;1.50;;
16531;SDS011;66872;63.142;14.482;2023-06-24T11:09:34;1.58;;;1.48;;
16531;SDS011;66872;63.142;14.482;2023-06-24T11:12:02;1.77;;;1.67;;
16531;SDS011;66872;63.142;14.482;2023-06-24T11:14:28;1.65;;;1.55;;
16531;SDS011;66872;63.142;14.482;2023-06-24T11:16:54;1.58;;;1.48;;
16531;SDS011;66872;63.142;14.482;2023-06-24T11:19:20;1.52;;;1.42;;
16531;SDS011;66872;63.142;14.482;2023-06-24T11:21:48;1.67;;;1.58;;
16531;SDS011;66872;63.142;14.482;2023-06-24T11:24:14;1.80;;;1.70;;
16531;SDS011;66872;63.142;14.482;2023-06-24T11:26:40;1.70;;;1.60;;
16531;SDS011;66872;63.142;14.482;2023-06-24T11:29:09;1.88;;;1.55;;
16531;SDS011;66872;63.142;14.482;2023-06-24T11:31:36;1.50;;;1.40;;
16531;SDS011;66872;63.142;14.482;2023-06-24T11:34:02;1.80;;;1.50;;
16531;SDS011;66872;63.142;14.482;2023-06-24T11:36:28;1.85;;;1.60;;
16531;SDS011;66872;63.142;14.482;2023-06-24T11:38:54;1.88;;;1.67;;
16531;SDS011;66872;63.142;14.482;2023-06-24T11:41:23;1.83;;;1.73;;
16531;SDS011;66872;63.142;14.482;2023-06-24T11:43:50;1.88;;;1.73;;
16531;SDS011;66872;63.142;14.482;2023-06-24T11:46:29;1.50;;;1.40;;
16531;SDS011;66872;63.142;14.482;2023-06-24T11:49:04;1.55;;;1.45;;
16531;SDS011;66872;63.142;14.482;2023-06-24T11:51:30;1.60;;;1.50;;
16531;SDS011;66872;63.142;14.482;2023-06-24T11:53:58;1.40;;;1.30;;
16531;SDS011;66872;63.142;14.482;2023-06-24T11:56:38;1.63;;;1.50;;
16531;SDS011;66872;63.142;14.482;2023-06-24T11:59:05;1.60;;;1.50;;
16531;SDS011;66872;63.142;14.482;2023-06-24T12:01:32;1.83;;;1.55;;
16531;SDS011;66872;63.142;14.482;2023-06-24T12:03:59;1.58;;;1.48;;
16531;SDS011;66872;63.142;14.482;2023-06-24T12:06:26;1.58;;;1.48;;
16531;SDS011;66872;63.142;14.482;2023-06-24T12:08:52;1.58;;;1.48;;
16531;SDS011;66872;63.142;14.482;2023-06-24T12:11:18;1.65;;;1.55;;
16531;SDS011;66872;63.142;14.482;2023-06-24T12:13:44;1.60;;;1.50;;
16531;SDS011;66872;63.142;14.482;2023-06-24T12:16:09;1.52;;;1.35;;
16531;SDS011;66872;63.142;14.482;2023-06-24T12:18:35;1.83;;;1.70;;
16531;SDS011;66872;63.142;14.482;2023-06-24T12:21:01;1.65;;;1.55;;
16531;SDS011;66872;63.142;14.482;2023-06-24T12:23:26;1.65;;;1.55;;
16531;SDS011;66872;63.142;14.482;2023-06-24T12:25:52;1.60;;;1.50;;
16531;SDS011;66872;63.142;14.482;2023-06-24T12:28:17;1.70;;;1.60;;
16531;SDS011;66872;63.142;14.482;2023-06-24T12:30:43;1.70;;;1.60;;
16531;SDS011;66872;63.142;14.482;2023-06-24T12:33:09;1.67;;;1.58;;
16531;SDS011;66872;63.142;14.482;2023-06-24T12:35:34;1.70;;;1.60;;
16531;SDS011;66872;63.142;14.482;2023-06-24T12:38:00;1.70;;;1.60;;
16531;SDS011;66872;63.142;14.482;2023-06-24T12:40:25;1.75;;;1.65;;
16531;SDS011;66872;63.142;14.482;2023-06-24T12:42:51;1.67;;;1.58;;
16531;SDS011;66872;63.142;14.482;2023-06-24T12:45:17;1.60;;;1.50;;
16531;SDS011;66872;63.142;14.482;2023-06-24T12:47:42;1.83;;;1.70;;
16531;SDS011;66872;63.142;14.482;2023-06-24T12:50:08;2.10;;;1.73;;
16531;SDS011;66872;63.142;14.482;2023-06-24T12:52:34;1.92;;;1.83;;
16531;SDS011;66872;63.142;14.482;2023-06-24T12:55:00;1.67;;;1.58;;
16531;SDS011;66872;63.142;14.482;2023-06-24T12:57:25;1.50;;;1.40;;
16531;SDS011;66872;63.142;14.482;2023-06-24T12:59:51;1.50;;;1.40;;
16531;SDS011;66872;63.142;14.482;2023-06-24T13:02:17;1.77;;;1.67;;
16531;SDS011;66872;63.142;14.482;2023-06-24T13:04:42;1.65;;;1.55;;
16531;SDS011;66872;63.142;14.482;2023-06-24T13:07:08;1.67;;;1.58;;
16531;SDS011;66872;63.142;14.482;2023-06-24T13:09:34;1.70;;;1.58;;
16531;SDS011;66872;63.142;14.482;2023-06-24T13:12:00;1.60;;;1.50;;
16531;SDS011;66872;63.142;14.482;2023-06-24T13:14:26;1.60;;;1.50;;
16531;SDS011;66872;63.142;14.482;2023-06-24T13:16:53;1.85;;;1.75;;
16531;SDS011;66872;63.142;14.482;2023-06-24T13:19:19;1.52;;;1.42;;
16531;SDS011;66872;63.142;14.482;2023-06-24T13:21:46;1.70;;;1.60;;
16531;SDS011;66872;63.142;14.482;2023-06-24T13:24:12;1.60;;;1.50;;
16531;SDS011;66872;63.142;14.482;2023-06-24T13:26:38;1.50;;;1.40;;
16531;SDS011;66872;63.142;14.482;2023-06-24T13:29:03;1.80;;;1.70;;
16531;SDS011;66872;63.142;14.482;2023-06-24T13:31:29;1.63;;;1.52;;
16531;SDS011;66872;63.142;14.482;2023-06-24T13:33:55;1.63;;;1.52;;
16531;SDS011;66872;63.142;14.482;2023-06-24T13:36:31;2.05;;;1.65;;
16531;SDS011;66872;63.142;14.482;2023-06-24T13:39:00;1.80;;;1.70;;
16531;SDS011;66872;63.142;14.482;2023-06-24T13:41:26;1.60;;;1.50;;
16531;SDS011;66872;63.142;14.482;2023-06-24T13:43:54;1.60;;;1.50;;
16531;SDS011;66872;63.142;14.482;2023-06-24T13:46:21;1.70;;;1.60;;
16531;SDS011;66872;63.142;14.482;2023-06-24T13:48:48;1.60;;;1.50;;
16531;SDS011;66872;63.142;14.482;2023-06-24T13:51:14;1.70;;;1.60;;
16531;SDS011;66872;63.142;14.482;2023-06-24T13:53:41;1.58;;;1.48;;
16531;SDS011;66872;63.142;14.482;2023-06-24T13:56:07;1.85;;;1.60;;
16531;SDS011;66872;63.142;14.482;2023-06-24T13:58:33;2.20;;;1.60;;
16531;SDS011;66872;63.142;14.482;2023-06-24T14:00:59;1.70;;;1.60;;
16531;SDS011;66872;63.142;14.482;2023-06-24T14:03:25;1.60;;;1.50;;
16531;SDS011;66872;63.142;14.482;2023-06-24T14:05:50;1.70;;;1.60;;
16531;SDS011;66872;63.142;14.482;2023-06-24T14:08:16;1.75;;;1.65;;
16531;SDS011;66872;63.142;14.482;2023-06-24T14:10:42;1.60;;;1.50;;
16531;SDS011;66872;63.142;14.482;2023-06-24T14:13:07;1.70;;;1.60;;
16531;SDS011;66872;63.142;14.482;2023-06-24T14:15:33;1.70;;;1.60;;
16531;SDS011;66872;63.142;14.482;2023-06-24T14:17:59;2.85;;;1.77;;
16531;SDS011;66872;63.142;14.482;2023-06-24T14:20:24;1.65;;;1.55;;
16531;SDS011;66872;63.142;14.482;2023-06-24T14:22:50;1.70;;;1.60;;
16531;SDS011;66872;63.142;14.482;2023-06-24T14:25:16;1.65;;;1.55;;
16531;SDS011;66872;63.142;14.482;2023-06-24T14:27:42;1.60;;;1.50;;
16531;SDS011;66872;63.142;14.482;2023-06-24T14:30:09;1.80;;;1.70;;
16531;SDS011;66872;63.142;14.482;2023-06-24T14:32:35;1.70;;;1.60;;
16531;SDS011;66872;63.142;14.482;2023-06-24T14:35:00;1.58;;;1.48;;
16531;SDS011;66872;63.142;14.482;2023-06-24T14:37:26;1.60;;;1.50;;
16531;SDS011;66872;63.142;14.482;2023-06-24T14:39:52;1.60;;;1.50;;
16531;SDS011;66872;63.142;14.482;2023-06-24T14:42:17;1.50;;;1.40;;
16531;SDS011;66872;63.142;14.482;2023-06-24T14:44:43;1.52;;;1.42;;
16531;SDS011;66872;63.142;14.482;2023-06-24T14:47:09;1.60;;;1.50;;
16531;SDS011;66872;63.142;14.482;2023-06-24T14:49:35;1.70;;;1.60;;
16531;SDS011;66872;63.142;14.482;2023-06-24T14:52:00;1.80;;;1.55;;